Time;durP1;ratioP1;P1;durP2;ratioP2;P2;SDS_P1;SDS_P2;PMS_P1;PMS_P2;Temp;Humidity;BMP_temperature;BMP_pressure;BME280_temperature;BME280_humidity;BME280_pressure;Samples;Min_cycle;Max_cycle;Signal;HPM_P1;HPM_P2
2022/04/22 00:02:22;;;;;;;8.65;5.82;;;;;;;;;;5121600;28;20079;-84
2022/04/22 00:04:47;;;;;;;9.57;6.45;;;;;;;;;;5113810;28;20047;-87
2022/04/22 00:07:13;;;;;;;11.85;7.03;;;;;;;;;;5112610;28;20020;-82
2022/04/22 00:09:38;;;;;;;11.10;6.53;;;;;;;;;;5107788;28;20045;-86
2022/04/22 00:12:04;;;;;;;14.85;8.02;;;;;;;;;;5107301;28;20103;-86
2022/04/22 00:14:29;;;;;;;12.63;5.93;;;;;;;;;;5107564;28;20016;-82
2022/04/22 00:16:54;;;;;;;11.40;6.82;;;;;;;;;;5107861;28;20020;-82
2022/04/22 00:19:20;;;;;;;13.18;7.20;;;;;;;;;;5107500;28;20020;-84
2022/04/22 00:21:47;;;;;;;10.98;7.45;;;;;;;;;;5107863;28;20012;-84
2022/04/22 00:24:13;;;;;;;14.38;7.20;;;;;;;;;;5105696;28;20020;-86
2022/04/22 00:26:38;;;;;;;9.02;5.78;;;;;;;;;;5104412;28;20031;-86
2022/04/22 00:29:03;;;;;;;11.77;6.88;;;;;;;;;;5101581;28;20450;-85
2022/04/22 00:31:29;;;;;;;10.20;5.78;;;;;;;;;;5099084;28;20019;-85
2022/04/22 00:33:54;;;;;;;8.95;6.28;;;;;;;;;;5102104;28;20024;-88
2022/04/22 00:36:19;;;;;;;8.55;5.82;;;;;;;;;;5104763;28;20024;-83
2022/04/22 00:38:44;;;;;;;7.57;5.25;;;;;;;;;;5103719;28;20115;-86
2022/04/22 00:41:10;;;;;;;9.25;6.05;;;;;;;;;;5106159;28;20016;-85
2022/04/22 00:43:42;;;;;;;10.43;6.38;;;;;;;;;;5102729;28;20022;-84
2022/04/22 00:46:08;;;;;;;7.28;4.93;;;;;;;;;;5099218;28;20074;-86
2022/04/22 00:48:33;;;;;;;10.23;6.78;;;;;;;;;;5095186;28;20028;-79
2022/04/22 00:50:59;;;;;;;10.50;6.00;;;;;;;;;;5094917;28;20448;-83
2022/04/22 00:53:25;;;;;;;10.25;7.38;;;;;;;;;;5096115;28;20036;-79
2022/04/22 00:55:50;;;;;;;12.65;6.88;;;;;;;;;;5096406;28;20027;-81
2022/04/22 00:58:16;;;;;;;9.98;6.90;;;;;;;;;;5098511;28;20110;-82
2022/04/22 01:00:41;;;;;;;13.40;7.15;;;;;;;;;;5097047;28;20012;-81
2022/04/22 01:03:07;;;;;;;9.48;7.07;;;;;;;;;;5093302;28;20031;-80
2022/04/22 01:11:00;;;;;;;10.63;7.03;;;;;;;;;;5093080;28;20035;-84
2022/04/22 01:13:25;;;;;;;13.27;6.82;;;;;;;;;;5093288;28;20024;-80
2022/04/22 01:15:51;;;;;;;10.13;6.57;;;;;;;;;;5093520;28;20166;-78
2022/04/22 01:18:17;;;;;;;11.70;6.60;;;;;;;;;;5093800;28;20014;-79
2022/04/22 01:20:42;;;;;;;10.63;7.30;;;;;;;;;;5095257;28;20020;-80
2022/04/22 01:23:07;;;;;;;10.50;7.43;;;;;;;;;;5094756;28;20016;-81
2022/04/22 01:25:32;;;;;;;10.60;7.18;;;;;;;;;;5094985;28;20047;-84
2022/04/22 01:27:58;;;;;;;10.60;7.38;;;;;;;;;;5094223;28;20097;-79
2022/04/22 01:30:24;;;;;;;10.63;7.10;;;;;;;;;;5094051;28;20016;-78
2022/04/22 01:32:50;;;;;;;10.38;6.72;;;;;;;;;;5093367;28;20070;-83
2022/04/22 01:35:16;;;;;;;8.80;5.93;;;;;;;;;;5102829;28;20031;-83
2022/04/22 01:37:43;;;;;;;9.15;6.07;;;;;;;;;;5108789;28;20032;-83
2022/04/22 01:40:09;;;;;;;10.90;6.63;;;;;;;;;;5106737;28;20016;-82
2022/04/22 01:42:34;;;;;;;12.32;7.55;;;;;;;;;;5107409;28;20088;-86
2022/04/22 01:44:59;;;;;;;12.02;7.70;;;;;;;;;;5107383;28;20020;-83
2022/04/22 01:47:24;;;;;;;13.73;7.30;;;;;;;;;;5105532;28;20028;-82
2022/04/22 01:49:49;;;;;;;13.65;7.10;;;;;;;;;;5106584;28;20012;-83
2022/04/22 01:52:15;;;;;;;11.02;7.05;;;;;;;;;;5105794;28;20016;-85
2022/04/22 01:54:41;;;;;;;11.23;7.35;;;;;;;;;;5105718;28;20024;-83
2022/04/22 01:57:06;;;;;;;13.00;7.63;;;;;;;;;;5106264;28;20085;-83
2022/04/22 01:59:31;;;;;;;10.57;7.25;;;;;;;;;;5104876;28;20046;-79
2022/04/22 02:01:58;;;;;;;9.65;7.18;;;;;;;;;;5106427;28;20035;-82
2022/04/22 02:04:23;;;;;;;9.35;6.65;;;;;;;;;;5106954;28;20023;-88
2022/04/22 02:06:48;;;;;;;9.83;6.37;;;;;;;;;;5104713;28;20055;-88
2022/04/22 02:09:15;;;;;;;10.50;7.15;;;;;;;;;;5106518;28;20746;-83
2022/04/22 02:11:41;;;;;;;9.65;7.15;;;;;;;;;;5107010;28;20046;-84
2022/04/22 02:14:06;;;;;;;9.75;6.82;;;;;;;;;;5107307;28;20031;-85
2022/04/22 02:16:31;;;;;;;10.03;6.63;;;;;;;;;;5106609;28;20020;-84
2022/04/22 02:18:57;;;;;;;10.18;7.35;;;;;;;;;;5098409;28;20275;-83
2022/04/22 02:21:22;;;;;;;10.27;6.32;;;;;;;;;;5098163;28;20065;-82
2022/04/22 02:23:48;;;;;;;11.30;7.57;;;;;;;;;;5108032;28;20024;-88
2022/04/22 02:26:13;;;;;;;9.82;6.78;;;;;;;;;;5107475;28;20004;-88
2022/04/22 02:28:39;;;;;;;7.55;5.85;;;;;;;;;;5106108;28;20531;-86
2022/04/22 02:31:06;;;;;;;9.32;6.82;;;;;;;;;;5106083;28;20008;-88
2022/04/22 02:33:31;;;;;;;13.48;7.13;;;;;;;;;;5107654;28;20352;-85
2022/04/22 02:35:56;;;;;;;9.13;6.85;;;;;;;;;;5104572;28;20103;-86
2022/04/22 02:38:22;;;;;;;12.05;7.13;;;;;;;;;;5106158;28;20012;-85
2022/04/22 02:46:15;;;;;;;12.98;8.35;;;;;;;;;;5102861;28;20086;-83
2022/04/22 02:48:40;;;;;;;16.92;9.90;;;;;;;;;;5105490;28;20031;-81
2022/04/22 02:51:05;;;;;;;14.30;10.18;;;;;;;;;;5099122;28;20452;-80
2022/04/22 02:53:31;;;;;;;17.65;10.43;;;;;;;;;;5092682;28;20044;-81
2022/04/22 02:55:57;;;;;;;16.65;10.35;;;;;;;;;;5090270;28;20486;-83
2022/04/22 02:58:22;;;;;;;19.08;11.57;;;;;;;;;;5092823;28;20396;-81
2022/04/22 03:00:47;;;;;;;18.33;11.07;;;;;;;;;;5096535;28;20039;-82
2022/04/22 03:03:12;;;;;;;21.42;10.85;;;;;;;;;;5109737;28;20034;-82
2022/04/22 03:05:38;;;;;;;17.77;11.27;;;;;;;;;;5112064;28;20016;-78
2022/04/22 03:08:03;;;;;;;15.27;10.63;;;;;;;;;;5093972;28;20102;-79
2022/04/22 03:10:29;;;;;;;16.00;9.85;;;;;;;;;;5094643;28;20019;-79
2022/04/22 03:12:55;;;;;;;14.95;10.13;;;;;;;;;;5093268;28;20062;-78
2022/04/22 03:15:20;;;;;;;14.35;10.23;;;;;;;;;;5091845;28;20037;-80
2022/04/22 03:17:45;;;;;;;16.10;11.30;;;;;;;;;;5091930;28;20016;-79
2022/04/22 03:20:11;;;;;;;14.93;10.77;;;;;;;;;;5092809;28;20482;-79
2022/04/22 03:22:36;;;;;;;18.85;12.90;;;;;;;;;;5093223;28;20028;-80
2022/04/22 03:25:02;;;;;;;16.33;11.77;;;;;;;;;;5094107;28;20075;-80
2022/04/22 03:27:27;;;;;;;14.32;10.73;;;;;;;;;;5090437;28;20523;-77
2022/04/22 03:29:53;;;;;;;17.30;10.82;;;;;;;;;;5089837;28;20048;-85
2022/04/22 03:32:18;;;;;;;16.08;10.15;;;;;;;;;;5091537;28;20028;-80
2022/04/22 03:34:43;;;;;;;15.50;9.60;;;;;;;;;;5091417;28;20031;-81
2022/04/22 03:37:08;;;;;;;16.40;10.17;;;;;;;;;;5091726;28;20598;-78
2022/04/22 03:39:34;;;;;;;14.52;10.32;;;;;;;;;;5091260;28;20321;-82
2022/04/22 03:41:59;;;;;;;13.90;9.77;;;;;;;;;;5094967;28;20016;-78
2022/04/22 03:44:25;;;;;;;15.23;10.23;;;;;;;;;;5095907;28;20115;-87
2022/04/22 03:46:51;;;;;;;16.20;10.55;;;;;;;;;;5103907;28;20066;-82
2022/04/22 03:49:16;;;;;;;14.50;9.63;;;;;;;;;;5114955;28;20122;-80
2022/04/22 03:51:42;;;;;;;12.73;9.23;;;;;;;;;;5112076;28;20027;-77
2022/04/22 03:54:07;;;;;;;15.00;9.23;;;;;;;;;;5098227;28;20082;-84
2022/04/22 03:59:17;;;;;;;14.20;9.32;;;;;;;;;;5115553;28;20605;-81
2022/04/22 04:01:43;;;;;;;14.68;9.88;;;;;;;;;;5116684;27;20015;-80
2022/04/22 04:04:08;;;;;;;18.50;10.23;;;;;;;;;;5116600;28;20031;-78
2022/04/22 04:06:35;;;;;;;14.38;9.55;;;;;;;;;;5115635;28;20022;-81
2022/04/22 04:17:09;;;;;;;14.15;9.73;;;;;;;;;;5094110;28;20488;-81
2022/04/22 04:25:02;;;;;;;17.63;11.32;;;;;;;;;;5094781;28;20035;-76
2022/04/22 04:27:29;;;;;;;16.95;10.50;;;;;;;;;;5095368;28;20036;-87
2022/04/22 04:29:54;;;;;;;19.15;11.40;;;;;;;;;;5096669;28;20111;-81
2022/04/22 04:32:19;;;;;;;16.65;11.23;;;;;;;;;;5098937;28;20043;-83
2022/04/22 04:34:45;;;;;;;18.50;11.77;;;;;;;;;;5096094;28;20039;-85
2022/04/22 04:37:11;;;;;;;17.65;11.77;;;;;;;;;;5096488;28;20488;-80
2022/04/22 04:39:36;;;;;;;19.40;12.13;;;;;;;;;;5099042;28;20465;-82
2022/04/22 04:42:02;;;;;;;18.60;11.77;;;;;;;;;;5098229;28;20111;-79
2022/04/22 04:44:28;;;;;;;17.55;11.60;;;;;;;;;;5099811;28;20291;-78
2022/04/22 04:46:53;;;;;;;17.83;11.93;;;;;;;;;;5096743;28;20027;-89
2022/04/22 04:49:18;;;;;;;20.13;11.80;;;;;;;;;;5094403;28;20027;-81
2022/04/22 04:51:44;;;;;;;21.05;13.85;;;;;;;;;;5098469;28;20031;-85
2022/04/22 04:54:09;;;;;;;21.60;13.40;;;;;;;;;;5097065;28;20032;-83
2022/04/22 04:56:34;;;;;;;19.50;11.70;;;;;;;;;;5100173;28;20265;-82
2022/04/22 04:58:59;;;;;;;17.88;12.10;;;;;;;;;;5102071;28;20400;-81
2022/04/22 05:01:25;;;;;;;15.73;10.10;;;;;;;;;;5111349;28;20012;-85
2022/04/22 05:03:50;;;;;;;16.25;11.30;;;;;;;;;;5110662;28;20016;-81
2022/04/22 05:06:15;;;;;;;15.70;10.20;;;;;;;;;;5112109;28;20046;-83
2022/04/22 05:08:40;;;;;;;15.27;10.27;;;;;;;;;;5109560;28;20073;-87
2022/04/22 05:11:06;;;;;;;15.93;9.85;;;;;;;;;;5096633;28;20377;-74
2022/04/22 05:13:31;;;;;;;13.90;9.77;;;;;;;;;;5092785;28;20032;-75
2022/04/22 05:15:57;;;;;;;15.73;9.88;;;;;;;;;;5101375;28;20024;-76
2022/04/22 05:18:22;;;;;;;15.70;10.15;;;;;;;;;;5095404;28;20070;-76
2022/04/22 05:20:48;;;;;;;13.57;10.00;;;;;;;;;;5096798;28;20473;-78
2022/04/22 05:23:13;;;;;;;14.70;10.00;;;;;;;;;;5093234;28;20749;-76
2022/04/22 05:25:38;;;;;;;14.95;10.02;;;;;;;;;;5092079;28;20024;-76
2022/04/22 05:28:06;;;;;;;16.08;9.40;;;;;;;;;;5091996;28;20059;-75
2022/04/22 05:33:16;;;;;;;16.98;10.80;;;;;;;;;;5091029;28;20491;-75
2022/04/22 05:35:42;;;;;;;15.23;10.05;;;;;;;;;;5091434;28;20016;-75
2022/04/22 05:38:08;;;;;;;14.05;10.23;;;;;;;;;;5091850;28;20028;-76
2022/04/22 05:40:36;;;;;;;14.38;9.20;;;;;;;;;;5091600;28;20019;-76
2022/04/22 05:43:01;;;;;;;16.25;9.85;;;;;;;;;;5092101;28;20013;-76
2022/04/22 05:45:27;;;;;;;16.00;9.80;;;;;;;;;;5091427;28;20016;-76
2022/04/22 05:47:53;;;;;;;14.10;9.77;;;;;;;;;;5091510;28;20051;-75
2022/04/22 05:50:19;;;;;;;15.40;9.63;;;;;;;;;;5091680;28;20028;-75
2022/04/22 05:52:45;;;;;;;15.13;9.52;;;;;;;;;;5091701;28;20036;-76
2022/04/22 05:55:12;;;;;;;17.02;10.25;;;;;;;;;;5091751;28;20023;-76
2022/04/22 05:57:38;;;;;;;17.05;11.00;;;;;;;;;;5091275;28;20070;-75
2022/04/22 06:00:05;;;;;;;14.65;10.18;;;;;;;;;;5091239;28;20021;-76
2022/04/22 06:02:31;;;;;;;23.52;12.82;;;;;;;;;;5091326;28;20384;-76
2022/04/22 06:04:56;;;;;;;22.98;13.50;;;;;;;;;;5091234;28;20012;-76
2022/04/22 06:07:21;;;;;;;23.58;12.90;;;;;;;;;;5091108;28;20020;-76
2022/04/22 06:12:30;;;;;;;16.00;9.52;;;;;;;;;;5091840;28;20038;-75
2022/04/22 06:14:59;;;;;;;17.25;10.25;;;;;;;;;;5091813;28;20024;-76
2022/04/22 06:17:25;;;;;;;16.42;10.30;;;;;;;;;;5091726;28;20031;-75
2022/04/22 06:19:50;;;;;;;15.45;10.13;;;;;;;;;;5093162;28;20020;-76
2022/04/22 06:22:16;;;;;;;13.80;9.67;;;;;;;;;;5103859;28;20031;-77
2022/04/22 06:24:41;;;;;;;18.00;10.13;;;;;;;;;;5110417;28;20256;-75
2022/04/22 06:27:06;;;;;;;17.13;11.07;;;;;;;;;;5110828;28;20389;-75
2022/04/22 06:29:32;;;;;;;14.63;9.48;;;;;;;;;;5109678;28;20084;-75
2022/04/22 06:31:57;;;;;;;17.60;10.05;;;;;;;;;;5109721;28;20059;-74
2022/04/22 06:34:23;;;;;;;18.27;10.70;;;;;;;;;;5109536;28;20036;-75
2022/04/22 06:36:49;;;;;;;17.67;10.35;;;;;;;;;;5111452;28;20029;-77
2022/04/22 06:39:14;;;;;;;19.88;11.15;;;;;;;;;;5111037;28;20024;-75
2022/04/22 06:47:08;;;;;;;15.05;9.30;;;;;;;;;;5110246;28;20407;-76
2022/04/22 06:49:34;;;;;;;14.68;9.00;;;;;;;;;;5111016;28;20015;-78
2022/04/22 06:52:00;;;;;;;12.77;7.43;;;;;;;;;;5109713;28;20050;-76
2022/04/22 06:54:26;;;;;;;12.05;7.30;;;;;;;;;;5110871;28;20027;-75
2022/04/22 06:56:51;;;;;;;11.73;7.93;;;;;;;;;;5111053;28;20081;-74
2022/04/22 06:59:19;;;;;;;13.68;8.05;;;;;;;;;;5110823;28;20099;-75
2022/04/22 07:01:45;;;;;;;13.80;7.75;;;;;;;;;;5109669;28;20072;-76
2022/04/22 07:04:10;;;;;;;13.57;7.35;;;;;;;;;;5110907;28;21628;-78
2022/04/22 07:06:36;;;;;;;13.82;7.90;;;;;;;;;;5111534;28;20027;-76
2022/04/22 07:09:01;;;;;;;11.98;7.95;;;;;;;;;;5109493;28;20040;-76
2022/04/22 07:11:27;;;;;;;12.77;7.68;;;;;;;;;;5111092;28;20016;-77
2022/04/22 07:13:57;;;;;;;9.68;7.25;;;;;;;;;;5111138;28;20028;-77
2022/04/22 07:16:22;;;;;;;9.43;7.18;;;;;;;;;;5112493;28;20555;-76
2022/04/22 07:18:48;;;;;;;9.85;6.47;;;;;;;;;;5115465;28;20115;-77
2022/04/22 07:21:13;;;;;;;8.23;5.55;;;;;;;;;;5115529;28;20506;-76
2022/04/22 07:23:39;;;;;;;12.00;6.00;;;;;;;;;;5119336;27;20019;-77
2022/04/22 07:26:06;;;;;;;9.63;6.95;;;;;;;;;;5116146;28;20024;-76
2022/04/22 07:28:32;;;;;;;12.30;6.05;;;;;;;;;;5116395;28;20054;-76
2022/04/22 07:30:58;;;;;;;8.07;5.07;;;;;;;;;;5120622;28;20027;-80
2022/04/22 07:33:24;;;;;;;11.02;5.90;;;;;;;;;;5117762;28;20050;-75
2022/04/22 07:35:49;;;;;;;8.63;5.60;;;;;;;;;;5115054;28;20492;-76
2022/04/22 07:38:15;;;;;;;9.60;6.45;;;;;;;;;;5114766;28;20020;-77
2022/04/22 07:40:42;;;;;;;8.63;6.40;;;;;;;;;;5113530;28;20016;-76
2022/04/22 07:48:35;;;;;;;12.82;8.40;;;;;;;;;;5114423;28;20096;-77
2022/04/22 07:51:01;;;;;;;17.45;8.80;;;;;;;;;;5114666;28;20471;-76
2022/04/22 07:53:26;;;;;;;17.02;8.90;;;;;;;;;;5114264;28;20552;-76
2022/04/22 07:55:51;;;;;;;21.73;8.48;;;;;;;;;;5114093;28;20464;-74
2022/04/22 07:58:17;;;;;;;14.35;8.63;;;;;;;;;;5113917;28;20023;-75
2022/04/22 08:00:44;;;;;;;15.60;9.38;;;;;;;;;;5115116;28;20045;-77
2022/04/22 08:03:10;;;;;;;14.77;8.63;;;;;;;;;;5115416;28;20507;-76
2022/04/22 08:05:35;;;;;;;13.60;7.95;;;;;;;;;;5114264;28;20027;-76
2022/04/22 08:08:01;;;;;;;11.43;6.90;;;;;;;;;;5113991;28;20426;-77
2022/04/22 08:10:26;;;;;;;9.57;6.30;;;;;;;;;;5112800;28;20503;-78
2022/04/22 08:12:51;;;;;;;9.68;7.00;;;;;;;;;;5114138;28;20015;-77
2022/04/22 08:15:18;;;;;;;9.97;6.07;;;;;;;;;;5113832;28;20069;-75
2022/04/22 08:17:43;;;;;;;12.10;7.18;;;;;;;;;;5114177;28;20689;-76
2022/04/22 08:20:10;;;;;;;8.43;6.15;;;;;;;;;;5111762;28;20099;-76
2022/04/22 08:22:36;;;;;;;9.45;7.35;;;;;;;;;;5100446;28;20016;-75
2022/04/22 08:25:03;;;;;;;13.70;6.78;;;;;;;;;;5102204;28;20020;-76
2022/04/22 08:27:28;;;;;;;11.15;6.75;;;;;;;;;;5097709;28;20053;-74
2022/04/22 08:29:54;;;;;;;9.68;6.10;;;;;;;;;;5103401;28;20458;-77
2022/04/22 08:32:19;;;;;;;8.77;5.85;;;;;;;;;;5096637;28;20095;-75
2022/04/22 08:34:45;;;;;;;11.65;6.50;;;;;;;;;;5093504;28;20050;-78
2022/04/22 08:37:10;;;;;;;9.45;6.95;;;;;;;;;;5094616;28;20016;-75
2022/04/22 08:39:35;;;;;;;8.43;6.03;;;;;;;;;;5105443;28;20452;-75
2022/04/22 08:42:01;;;;;;;9.55;6.45;;;;;;;;;;5108780;28;20032;-75
2022/04/22 08:44:29;;;;;;;8.15;6.15;;;;;;;;;;5099240;28;20024;-75
2022/04/22 08:52:24;;;;;;;16.83;6.72;;;;;;;;;;5100907;28;20538;-76
2022/04/22 08:54:49;;;;;;;12.50;6.90;;;;;;;;;;5102479;28;20078;-75
2022/04/22 08:57:15;;;;;;;8.60;6.30;;;;;;;;;;5093511;28;20024;-75
2022/04/22 08:59:41;;;;;;;7.13;5.22;;;;;;;;;;5092879;28;20103;-75
2022/04/22 09:02:07;;;;;;;7.88;5.70;;;;;;;;;;5092949;28;20104;-75
2022/04/22 09:04:32;;;;;;;8.03;5.47;;;;;;;;;;5098776;28;20460;-78
2022/04/22 09:06:59;;;;;;;9.55;6.32;;;;;;;;;;5103893;28;20890;-76
2022/04/22 09:09:24;;;;;;;10.18;6.30;;;;;;;;;;5097512;28;20028;-78
2022/04/22 09:11:51;;;;;;;10.85;6.30;;;;;;;;;;5107942;28;20072;-78
2022/04/22 09:14:19;;;;;;;9.23;6.65;;;;;;;;;;5098077;28;20162;-78
2022/04/22 09:16:45;;;;;;;11.05;7.18;;;;;;;;;;5097691;28;20643;-78
2022/04/22 09:19:10;;;;;;;9.75;6.90;;;;;;;;;;5100195;28;20007;-79
2022/04/22 09:21:35;;;;;;;10.00;7.00;;;;;;;;;;5101944;28;20012;-77
2022/04/22 09:24:11;;;;;;;10.77;7.20;;;;;;;;;;5107593;28;20264;-80
2022/04/22 09:26:36;;;;;;;10.85;6.63;;;;;;;;;;5110317;28;20080;-75
2022/04/22 09:29:04;;;;;;;12.17;6.77;;;;;;;;;;5098590;28;20052;-85
2022/04/22 09:31:30;;;;;;;10.52;7.03;;;;;;;;;;5108416;28;20610;-78
2022/04/22 09:33:56;;;;;;;10.02;7.05;;;;;;;;;;5103984;28;20084;-78
2022/04/22 09:45:08;;;;;;;9.95;6.28;;;;;;;;;;5107901;28;20088;-84
2022/04/22 09:47:35;;;;;;;8.70;6.07;;;;;;;;;;5109589;28;20023;-84
2022/04/22 09:50:03;;;;;;;8.80;6.35;;;;;;;;;;5107080;28;20256;-86
2022/04/22 09:52:34;;;;;;;12.82;6.30;;;;;;;;;;5111025;28;20020;-84
2022/04/22 09:55:09;;;;;;;8.70;5.82;;;;;;;;;;5106725;28;20031;-81
2022/04/22 09:57:54;;;;;;;11.73;6.93;;;;;;;;;;5110274;28;20012;-75
2022/04/22 10:00:23;;;;;;;8.73;6.03;;;;;;;;;;5093678;28;20020;-79
2022/04/22 10:02:51;;;;;;;12.75;6.78;;;;;;;;;;5094118;28;20050;-75
2022/04/22 10:05:20;;;;;;;8.68;6.05;;;;;;;;;;5106040;28;20020;-82
2022/04/22 10:07:47;;;;;;;10.10;6.25;;;;;;;;;;5097706;28;20419;-79
2022/04/22 10:10:14;;;;;;;9.90;5.75;;;;;;;;;;5102784;28;20063;-81
2022/04/22 10:12:41;;;;;;;10.30;5.72;;;;;;;;;;5105417;28;20020;-85
2022/04/22 10:15:08;;;;;;;8.43;5.47;;;;;;;;;;5106527;28;20054;-85
2022/04/22 10:17:34;;;;;;;8.05;6.05;;;;;;;;;;5109500;28;20027;-87
2022/04/22 10:20:01;;;;;;;8.80;5.43;;;;;;;;;;5097116;28;20024;-83
2022/04/22 10:22:27;;;;;;;8.95;5.88;;;;;;;;;;5101323;28;20042;-84
2022/04/22 10:24:54;;;;;;;8.05;5.53;;;;;;;;;;5107134;28;20042;-89
2022/04/22 10:27:20;;;;;;;8.48;5.70;;;;;;;;;;5107213;28;20051;-83
2022/04/22 10:29:46;;;;;;;8.70;5.65;;;;;;;;;;5110275;28;20213;-83
2022/04/22 10:32:12;;;;;;;7.60;5.30;;;;;;;;;;5105829;28;20052;-83
2022/04/22 10:34:39;;;;;;;10.48;5.57;;;;;;;;;;5106223;28;20062;-84
2022/04/22 10:37:04;;;;;;;7.38;5.13;;;;;;;;;;5110728;28;20488;-84
2022/04/22 10:39:37;;;;;;;8.48;5.90;;;;;;;;;;5107557;28;20087;-86
2022/04/22 10:42:08;;;;;;;9.55;6.03;;;;;;;;;;5110933;28;20027;-87
2022/04/22 10:47:36;;;;;;;9.57;6.07;;;;;;;;;;5113736;28;20049;-90
2022/04/22 10:50:21;;;;;;;8.52;5.82;;;;;;;;;;5110649;28;20012;-82
2022/04/22 10:53:05;;;;;;;8.85;5.47;;;;;;;;;;5111147;28;20016;-86
2022/04/22 10:55:30;;;;;;;9.73;5.40;;;;;;;;;;5110232;28;20028;-86
2022/04/22 10:58:30;;;;;;;9.00;5.53;;;;;;;;;;5110333;28;20099;-84
2022/04/22 11:00:57;;;;;;;11.88;6.22;;;;;;;;;;5067389;28;20265;-85
2022/04/22 11:03:27;;;;;;;8.68;6.13;;;;;;;;;;5095139;28;20016;-83
2022/04/22 11:05:55;;;;;;;10.27;6.50;;;;;;;;;;5104856;28;20071;-83
2022/04/22 11:08:24;;;;;;;9.45;6.03;;;;;;;;;;5106042;28;20137;-83
2022/04/22 11:10:50;;;;;;;9.90;6.43;;;;;;;;;;5104975;28;20500;-79
2022/04/22 11:13:26;;;;;;;11.35;7.18;;;;;;;;;;5103296;28;20062;-81
2022/04/22 11:15:51;;;;;;;11.73;6.25;;;;;;;;;;5099458;28;20625;-84
2022/04/22 11:18:17;;;;;;;10.98;7.25;;;;;;;;;;5102002;28;20056;-84
2022/04/22 11:21:05;;;;;;;13.95;6.43;;;;;;;;;;5103777;28;20534;-85
2022/04/22 11:23:41;;;;;;;12.63;7.50;;;;;;;;;;5077432;28;20095;-83
2022/04/22 11:26:07;;;;;;;12.73;6.75;;;;;;;;;;5105451;28;20020;-83
2022/04/22 11:28:36;;;;;;;12.25;7.18;;;;;;;;;;5106265;28;20402;-83
2022/04/22 11:31:02;;;;;;;14.48;8.65;;;;;;;;;;5099238;28;20092;-81
2022/04/22 11:33:32;;;;;;;17.38;8.18;;;;;;;;;;5114555;28;20032;-85
2022/04/22 11:35:57;;;;;;;12.68;7.35;;;;;;;;;;5111725;28;20020;-83
2022/04/22 11:38:24;;;;;;;14.48;8.05;;;;;;;;;;5107227;28;20053;-84
2022/04/22 11:40:50;;;;;;;12.45;8.15;;;;;;;;;;5105994;28;20035;-84
2022/04/22 11:43:18;;;;;;;12.43;6.80;;;;;;;;;;5110749;28;20430;-84
2022/04/22 11:45:47;;;;;;;10.00;6.97;;;;;;;;;;5102141;28;20027;-83
2022/04/22 11:48:18;;;;;;;9.80;6.68;;;;;;;;;;5107361;28;20017;-87
2022/04/22 11:50:45;;;;;;;9.93;6.97;;;;;;;;;;5106816;28;20042;-85
2022/04/22 11:53:14;;;;;;;13.07;8.32;;;;;;;;;;5108432;28;20044;-83
2022/04/22 11:55:42;;;;;;;12.32;7.80;;;;;;;;;;5116131;28;20056;-83
2022/04/22 11:58:07;;;;;;;10.35;6.80;;;;;;;;;;5112882;28;20058;-77
2022/04/22 12:06:00;;;;;;;10.18;6.60;;;;;;;;;;5111305;28;20066;-85
2022/04/22 12:08:26;;;;;;;10.05;6.07;;;;;;;;;;5113691;28;20019;-85
2022/04/22 12:10:51;;;;;;;10.20;5.80;;;;;;;;;;5112543;28;20012;-79
2022/04/22 12:13:17;;;;;;;8.20;5.93;;;;;;;;;;5108988;28;20095;-83
2022/04/22 12:15:46;;;;;;;10.25;6.20;;;;;;;;;;5110100;28;20012;-85
2022/04/22 12:18:25;;;;;;;9.60;5.43;;;;;;;;;;5103382;28;20516;-84
2022/04/22 12:20:51;;;;;;;7.32;5.18;;;;;;;;;;5118268;28;20034;-85
2022/04/22 12:23:16;;;;;;;7.88;4.70;;;;;;;;;;5110181;28;20024;-82
2022/04/22 12:25:51;;;;;;;6.90;4.70;;;;;;;;;;5106038;28;20008;-80
2022/04/22 12:28:20;;;;;;;10.43;4.30;;;;;;;;;;5102974;28;20864;-84
2022/04/22 12:30:45;;;;;;;13.23;5.13;;;;;;;;;;5110199;28;20031;-86
2022/04/22 12:33:17;;;;;;;9.55;4.75;;;;;;;;;;5108088;28;20020;-85
2022/04/22 12:35:44;;;;;;;5.85;3.65;;;;;;;;;;5101219;28;20028;-75
2022/04/22 12:38:11;;;;;;;5.90;3.80;;;;;;;;;;5098625;28;20016;-76
2022/04/22 12:40:45;;;;;;;5.90;3.97;;;;;;;;;;5095084;28;20027;-77
2022/04/22 12:43:20;;;;;;;8.63;4.10;;;;;;;;;;5123892;28;20023;-82
2022/04/22 12:54:04;;;;;;;5.70;3.85;;;;;;;;;;5093291;28;21436;-81
2022/04/22 12:56:29;;;;;;;7.93;4.20;;;;;;;;;;5098353;28;20016;-80
2022/04/22 12:58:55;;;;;;;6.13;4.10;;;;;;;;;;5099905;28;20161;-82
2022/04/22 13:01:24;;;;;;;5.78;4.13;;;;;;;;;;5105684;28;20012;-84
2022/04/22 13:03:49;;;;;;;6.13;3.80;;;;;;;;;;5095881;28;20023;-77
2022/04/22 13:06:34;;;;;;;10.37;6.70;;;;;;;;;;5091474;28;20147;-80
2022/04/22 13:09:03;;;;;;;7.15;5.13;;;;;;;;;;5095019;28;20279;-76
2022/04/22 13:11:28;;;;;;;8.57;5.30;;;;;;;;;;5091921;28;20063;-79
2022/04/22 13:13:53;;;;;;;8.03;4.57;;;;;;;;;;5091365;28;20437;-77
2022/04/22 13:16:19;;;;;;;9.77;5.50;;;;;;;;;;5096799;28;20846;-77
2022/04/22 13:18:44;;;;;;;8.80;5.45;;;;;;;;;;5097548;28;20284;-81
2022/04/22 13:21:09;;;;;;;11.18;5.95;;;;;;;;;;5095416;28;20040;-76
2022/04/22 13:23:36;;;;;;;12.20;7.13;;;;;;;;;;5095263;28;20038;-78
2022/04/22 13:26:01;;;;;;;10.18;6.25;;;;;;;;;;5092273;28;20043;-77
2022/04/22 13:28:26;;;;;;;10.88;5.82;;;;;;;;;;5094359;28;20051;-75
2022/04/22 13:30:52;;;;;;;9.18;5.35;;;;;;;;;;5091478;28;20024;-78
2022/04/22 13:33:17;;;;;;;7.45;5.07;;;;;;;;;;5101455;28;20050;-77
2022/04/22 13:35:42;;;;;;;8.75;5.55;;;;;;;;;;5093824;28;20122;-83
2022/04/22 13:38:08;;;;;;;9.87;5.43;;;;;;;;;;5090160;28;20031;-79
2022/04/22 13:40:34;;;;;;;7.72;5.20;;;;;;;;;;5095032;28;20867;-84
2022/04/22 13:42:59;;;;;;;7.15;4.50;;;;;;;;;;5101563;28;20084;-82
2022/04/22 13:53:38;;;;;;;5.28;3.63;;;;;;;;;;5111291;28;20046;-84
2022/04/22 13:56:05;;;;;;;6.53;3.75;;;;;;;;;;5109958;28;20382;-88
2022/04/22 13:58:32;;;;;;;7.53;3.63;;;;;;;;;;5106750;28;20028;-81
2022/04/22 14:00:57;;;;;;;4.95;3.40;;;;;;;;;;5120110;28;20040;-86
2022/04/22 14:03:23;;;;;;;5.30;3.28;;;;;;;;;;5110225;28;20020;-81
2022/04/22 14:05:48;;;;;;;7.97;3.70;;;;;;;;;;5107317;28;20024;-84
2022/04/22 14:08:14;;;;;;;9.02;3.60;;;;;;;;;;5104562;28;20050;-86
2022/04/22 14:10:39;;;;;;;5.65;3.63;;;;;;;;;;5106322;28;20058;-82
2022/04/22 14:13:05;;;;;;;4.73;2.97;;;;;;;;;;5107195;28;20019;-78
2022/04/22 14:15:30;;;;;;;4.85;3.20;;;;;;;;;;5100328;28;20275;-84
2022/04/22 14:17:55;;;;;;;6.63;3.35;;;;;;;;;;5104378;28;20077;-79
2022/04/22 14:20:20;;;;;;;4.80;3.40;;;;;;;;;;5098620;28;20026;-82
2022/04/22 14:22:46;;;;;;;5.30;3.35;;;;;;;;;;5097103;28;20024;-85
2022/04/22 14:25:11;;;;;;;4.68;3.13;;;;;;;;;;5102028;28;20543;-80
2022/04/22 14:27:36;;;;;;;5.88;3.60;;;;;;;;;;5099086;28;20131;-81
2022/04/22 14:30:02;;;;;;;110.65;52.22;;;;;;;;;;5099698;28;20027;-77
2022/04/22 14:32:27;;;;;;;23.63;15.52;;;;;;;;;;5109072;28;20039;-80
2022/04/22 14:34:53;;;;;;;5.43;3.80;;;;;;;;;;5110849;28;20844;-82
2022/04/22 14:37:18;;;;;;;5.72;3.58;;;;;;;;;;5100288;28;20603;-85
2022/04/22 14:39:44;;;;;;;6.93;3.70;;;;;;;;;;5103164;28;20033;-79
2022/04/22 14:42:09;;;;;;;9.70;3.80;;;;;;;;;;5102969;28;20439;-82
2022/04/22 14:44:34;;;;;;;6.15;3.35;;;;;;;;;;5101522;28;20043;-80
2022/04/22 14:47:00;;;;;;;5.82;3.42;;;;;;;;;;5109669;28;20557;-80
2022/04/22 14:49:25;;;;;;;4.50;3.15;;;;;;;;;;5103541;28;20020;-84
2022/04/22 14:51:52;;;;;;;6.50;3.30;;;;;;;;;;5107817;28;20028;-83
2022/04/22 14:54:17;;;;;;;6.32;3.63;;;;;;;;;;5107781;28;20053;-83
2022/04/22 14:56:43;;;;;;;6.20;3.90;;;;;;;;;;5102164;28;20024;-83
2022/04/22 14:59:10;;;;;;;6.85;3.75;;;;;;;;;;5105584;28;21804;-82
2022/04/22 15:01:35;;;;;;;6.95;3.55;;;;;;;;;;5109117;28;20028;-79
2022/04/22 15:04:02;;;;;;;5.88;4.03;;;;;;;;;;5094962;28;20050;-84
2022/04/22 15:06:27;;;;;;;6.60;3.50;;;;;;;;;;5103455;28;20100;-84
2022/04/22 15:08:52;;;;;;;6.22;3.45;;;;;;;;;;5105179;28;20124;-84
2022/04/22 15:11:18;;;;;;;6.53;3.77;;;;;;;;;;5101672;28;20031;-86
2022/04/22 15:13:43;;;;;;;6.22;3.33;;;;;;;;;;5095183;28;20897;-81
2022/04/22 15:16:08;;;;;;;4.80;3.53;;;;;;;;;;5103428;28;20031;-86
2022/04/22 15:24:12;;;;;;;5.50;3.20;;;;;;;;;;5093885;28;20066;-86
2022/04/22 15:26:37;;;;;;;5.75;3.70;;;;;;;;;;5104353;28;20015;-79
2022/04/22 15:29:04;;;;;;;4.82;3.20;;;;;;;;;;5095680;28;20381;-83
2022/04/22 15:31:30;;;;;;;4.30;2.92;;;;;;;;;;5099384;28;20024;-80
2022/04/22 15:33:55;;;;;;;5.45;3.50;;;;;;;;;;5100453;28;20032;-81
2022/04/22 15:36:20;;;;;;;6.22;3.78;;;;;;;;;;5095583;28;20110;-84
2022/04/22 15:38:48;;;;;;;4.90;3.50;;;;;;;;;;5096376;28;20020;-83
2022/04/22 15:41:14;;;;;;;8.93;3.63;;;;;;;;;;5108178;28;20256;-78
2022/04/22 15:43:43;;;;;;;6.18;3.58;;;;;;;;;;5091715;28;20024;-82
2022/04/22 15:46:08;;;;;;;6.35;3.60;;;;;;;;;;5098318;28;20081;-77
2022/04/22 15:48:34;;;;;;;5.97;3.83;;;;;;;;;;5097332;28;20016;-77
2022/04/22 15:51:00;;;;;;;5.68;4.32;;;;;;;;;;5097262;28;20033;-76
2022/04/22 15:53:25;;;;;;;7.68;5.13;;;;;;;;;;5092419;28;20110;-75
2022/04/22 15:55:50;;;;;;;6.63;4.17;;;;;;;;;;5090646;28;20043;-76
2022/04/22 15:58:17;;;;;;;7.00;4.53;;;;;;;;;;5097286;28;20760;-78